Terminal Aerodrome Forecast
Issued by NWS

Home | Current Version | Previous Version | Text Only | Print | Product List | Glossary Off
Versions: 1 2 3 4 5 6 7 8 9 10 11 12 13 14 15 16 17 18 19 20 21 22 23 24 25 26

000
FTUS43 KGRB 161136
TAFCWA
TAF
KCWA 161136Z 1612/1712 08010KT P6SM SCT014 OVC022
      TEMPO 1612/1614 BKN014
     FM161400 09007KT P6SM -SN SCT010 OVC018
     FM162300 10007KT P6SM OVC012
     FM170800 08005KT 3SM BR OVC009=

USA.gov is the U.S. government's official web portal to all federal, state and local government web resources and services.